Time;durP1;ratioP1;P1;durP2;ratioP2;P2;SDS_P1;SDS_P2;PMS_P1;PMS_P2;Temp;Humidity;BMP_temperature;BMP_pressure;BME280_temperature;BME280_humidity;BME280_pressure;Samples;Min_cycle;Max_cycle;Signal;HPM_P1;HPM_P2
2023/03/05 00:00:10;;;;;;;5.37;1.50;;;;;;;;;;5031748;28;20266;-69
2023/03/05 00:02:35;;;;;;;4.13;1.27;;;;;;;;;;5032602;28;20203;-69
2023/03/05 00:05:00;;;;;;;6.70;1.70;;;;;;;;;;5032132;28;20702;-67
2023/03/05 00:07:26;;;;;;;4.90;1.83;;;;;;;;;;5032195;28;20215;-69
2023/03/05 00:09:51;;;;;;;3.90;1.63;;;;;;;;;;5032093;28;20231;-69
2023/03/05 00:12:16;;;;;;;4.70;1.50;;;;;;;;;;5032199;28;20219;-69
2023/03/05 00:14:42;;;;;;;4.83;1.87;;;;;;;;;;5031713;28;20274;-69
2023/03/05 00:17:07;;;;;;;4.33;1.57;;;;;;;;;;5014749;28;20212;-69
2023/03/05 00:19:32;;;;;;;6.27;1.57;;;;;;;;;;5012615;28;20217;-69
2023/03/05 00:21:58;;;;;;;6.10;1.90;;;;;;;;;;5012021;28;20213;-69
2023/03/05 00:24:23;;;;;;;6.37;1.70;;;;;;;;;;5011789;28;20676;-69
2023/03/05 00:26:48;;;;;;;6.10;2.00;;;;;;;;;;5012510;28;20246;-70
2023/03/05 00:29:17;;;;;;;5.60;1.63;;;;;;;;;;4993611;28;20209;-70
2023/03/05 00:31:43;;;;;;;5.57;1.80;;;;;;;;;;4992676;28;20296;-70
2023/03/05 00:34:09;;;;;;;6.60;1.93;;;;;;;;;;4992046;28;20293;-71
2023/03/05 00:36:38;;;;;;;5.77;1.67;;;;;;;;;;4992265;28;20202;-71
2023/03/05 00:39:03;;;;;;;6.13;1.53;;;;;;;;;;4992129;28;20209;-70
2023/03/05 00:41:28;;;;;;;6.60;1.70;;;;;;;;;;4992745;28;20320;-70
2023/03/05 00:43:53;;;;;;;4.47;1.60;;;;;;;;;;4992330;28;20675;-71
2023/03/05 00:46:19;;;;;;;7.23;2.07;;;;;;;;;;4991770;28;20734;-71
2023/03/05 00:48:44;;;;;;;3.13;1.37;;;;;;;;;;5009479;28;20207;-71
2023/03/05 00:51:09;;;;;;;7.68;1.92;;;;;;;;;;5030732;28;20689;-71
2023/03/05 00:53:35;;;;;;;6.50;1.43;;;;;;;;;;5031587;28;20208;-71
2023/03/05 00:56:00;;;;;;;3.83;1.40;;;;;;;;;;5031199;28;20294;-65
2023/03/05 00:58:25;;;;;;;5.53;1.73;;;;;;;;;;5031380;28;20674;-71
2023/03/05 01:00:51;;;;;;;7.47;1.77;;;;;;;;;;5031451;28;20677;-71
2023/03/05 01:03:16;;;;;;;7.57;1.53;;;;;;;;;;5030501;28;20220;-71
2023/03/05 01:05:42;;;;;;;6.57;1.67;;;;;;;;;;5031489;28;20243;-71
2023/03/05 01:08:07;;;;;;;5.83;1.50;;;;;;;;;;5031196;28;20208;-71
2023/03/05 01:10:33;;;;;;;3.63;1.40;;;;;;;;;;5030817;28;20540;-71
2023/03/05 01:12:58;;;;;;;5.17;1.40;;;;;;;;;;5031189;28;20243;-71
2023/03/05 01:15:23;;;;;;;4.82;1.50;;;;;;;;;;5026352;28;20228;-71
2023/03/05 01:17:49;;;;;;;4.00;1.47;;;;;;;;;;5010879;28;20216;-71
2023/03/05 01:20:14;;;;;;;4.83;1.30;;;;;;;;;;5010982;28;20493;-71
2023/03/05 01:22:40;;;;;;;5.23;1.60;;;;;;;;;;5024899;28;20212;-71
2023/03/05 01:25:05;;;;;;;2.90;1.10;;;;;;;;;;5030133;28;20219;-71
2023/03/05 01:27:30;;;;;;;4.03;1.30;;;;;;;;;;5030945;28;20211;-71
2023/03/05 01:29:56;;;;;;;4.43;1.47;;;;;;;;;;5031375;28;20575;-71
2023/03/05 01:32:21;;;;;;;4.70;1.60;;;;;;;;;;5030102;28;20666;-71
2023/03/05 01:34:46;;;;;;;4.33;1.40;;;;;;;;;;5030935;28;20610;-71
2023/03/05 01:37:11;;;;;;;5.23;1.27;;;;;;;;;;5030501;28;20214;-71
2023/03/05 01:39:37;;;;;;;4.37;1.47;;;;;;;;;;5030451;28;20220;-71
2023/03/05 01:42:02;;;;;;;5.57;1.50;;;;;;;;;;5030153;28;20204;-70
2023/03/05 01:44:28;;;;;;;3.43;1.47;;;;;;;;;;5030177;28;20669;-70
2023/03/05 01:46:53;;;;;;;4.57;1.60;;;;;;;;;;5030119;28;20576;-71
2023/03/05 01:49:22;;;;;;;6.43;1.70;;;;;;;;;;5029914;28;20338;-71
2023/03/05 01:51:57;;;;;;;4.70;1.40;;;;;;;;;;5029428;28;20200;-71
2023/03/05 01:54:23;;;;;;;4.37;1.57;;;;;;;;;;5029773;28;20216;-70
2023/03/05 01:56:49;;;;;;;5.07;1.90;;;;;;;;;;5028988;28;20265;-71
2023/03/05 01:59:14;;;;;;;4.17;1.53;;;;;;;;;;5029044;28;20212;-70
2023/03/05 02:01:41;;;;;;;6.23;1.53;;;;;;;;;;5030064;28;20269;-71
2023/03/05 02:04:08;;;;;;;5.20;1.50;;;;;;;;;;5030104;28;20203;-70
2023/03/05 02:06:33;;;;;;;5.20;1.70;;;;;;;;;;5028845;28;20598;-71
2023/03/05 02:08:58;;;;;;;6.80;1.83;;;;;;;;;;5028952;28;20212;-71
2023/03/05 02:11:24;;;;;;;5.83;1.63;;;;;;;;;;5029856;28;20216;-71
2023/03/05 02:13:49;;;;;;;5.20;1.60;;;;;;;;;;5023086;28;20746;-71
2023/03/05 02:16:14;;;;;;;5.63;1.93;;;;;;;;;;5010022;28;20216;-71
2023/03/05 02:18:40;;;;;;;5.43;1.60;;;;;;;;;;5010679;28;20680;-71
2023/03/05 02:21:05;;;;;;;4.63;1.30;;;;;;;;;;5009743;28;20299;-71
2023/03/05 02:23:32;;;;;;;4.80;1.60;;;;;;;;;;5010353;28;20475;-71
2023/03/05 02:25:58;;;;;;;6.30;1.60;;;;;;;;;;5010380;28;20208;-71
2023/03/05 02:28:25;;;;;;;4.93;1.53;;;;;;;;;;5009519;28;20208;-71
2023/03/05 02:30:50;;;;;;;5.50;1.60;;;;;;;;;;5010401;28;20291;-71
2023/03/05 02:33:16;;;;;;;6.17;1.77;;;;;;;;;;5010004;28;20295;-71
2023/03/05 02:35:42;;;;;;;5.67;1.67;;;;;;;;;;5010151;28;20302;-71
2023/03/05 02:38:08;;;;;;;5.33;2.00;;;;;;;;;;5009822;28;20291;-71
2023/03/05 02:40:33;;;;;;;6.47;1.80;;;;;;;;;;5010539;28;20303;-71
2023/03/05 02:42:58;;;;;;;4.27;1.40;;;;;;;;;;5009734;28;20215;-71
2023/03/05 02:45:24;;;;;;;4.83;1.47;;;;;;;;;;5009676;28;20248;-70
2023/03/05 02:47:49;;;;;;;5.07;1.80;;;;;;;;;;5010476;28;20320;-71
2023/03/05 02:50:14;;;;;;;5.18;1.60;;;;;;;;;;4991370;28;20216;-71
2023/03/05 02:52:39;;;;;;;5.73;1.77;;;;;;;;;;4990597;28;20271;-71
2023/03/05 02:55:05;;;;;;;4.53;1.33;;;;;;;;;;4990461;28;20669;-70
2023/03/05 02:57:30;;;;;;;5.72;1.60;;;;;;;;;;4995839;28;20208;-70
2023/03/05 02:59:56;;;;;;;5.40;1.53;;;;;;;;;;5029666;28;20221;-70
2023/03/05 03:02:21;;;;;;;4.83;1.60;;;;;;;;;;5033592;28;20214;-70
2023/03/05 03:04:46;;;;;;;4.27;1.60;;;;;;;;;;5033364;28;20216;-69
2023/03/05 03:07:12;;;;;;;7.27;2.10;;;;;;;;;;5008848;28;20258;-69
2023/03/05 03:09:37;;;;;;;5.63;2.00;;;;;;;;;;5015319;28;20571;-69
2023/03/05 03:12:03;;;;;;;5.55;1.70;;;;;;;;;;4998817;28;20758;-68
2023/03/05 03:14:30;;;;;;;5.37;2.03;;;;;;;;;;5000226;28;20270;-68
2023/03/05 03:16:56;;;;;;;6.60;2.17;;;;;;;;;;5007004;28;20216;-68
2023/03/05 03:19:22;;;;;;;5.23;1.60;;;;;;;;;;5021619;28;20527;-68
2023/03/05 03:21:49;;;;;;;5.87;1.83;;;;;;;;;;5008921;28;20209;-69
2023/03/05 03:24:14;;;;;;;6.90;1.97;;;;;;;;;;5014441;28;20227;-68
2023/03/05 03:26:39;;;;;;;5.63;2.00;;;;;;;;;;5013864;28;20683;-68
2023/03/05 03:29:05;;;;;;;7.40;1.90;;;;;;;;;;5002992;28;20626;-69
2023/03/05 03:31:30;;;;;;;4.83;1.67;;;;;;;;;;4996990;28;20243;-68
2023/03/05 03:33:55;;;;;;;6.57;2.03;;;;;;;;;;4995991;28;20564;-68
2023/03/05 03:36:20;;;;;;;6.43;1.77;;;;;;;;;;4997998;28;20212;-68
2023/03/05 03:38:46;;;;;;;6.23;1.90;;;;;;;;;;5022651;28;20581;-69
2023/03/05 03:41:11;;;;;;;5.40;1.63;;;;;;;;;;5012460;28;20212;-69
2023/03/05 03:43:36;;;;;;;5.67;1.90;;;;;;;;;;5003594;28;20220;-68
2023/03/05 03:46:03;;;;;;;6.53;2.30;;;;;;;;;;5003056;28;20703;-69
2023/03/05 03:48:28;;;;;;;5.03;1.60;;;;;;;;;;5003897;28;20668;-69
2023/03/05 03:50:53;;;;;;;6.37;1.90;;;;;;;;;;5003447;28;20251;-69
2023/03/05 03:53:19;;;;;;;5.23;1.87;;;;;;;;;;4997815;28;20623;-69
2023/03/05 03:55:45;;;;;;;5.63;1.70;;;;;;;;;;4995469;28;20212;-68
2023/03/05 03:58:10;;;;;;;4.80;2.00;;;;;;;;;;5015044;28;20743;-68
2023/03/05 04:00:36;;;;;;;5.20;1.63;;;;;;;;;;5020720;28;20224;-68
2023/03/05 04:03:01;;;;;;;7.20;2.00;;;;;;;;;;5022789;28;20948;-68
2023/03/05 04:05:26;;;;;;;5.80;2.20;;;;;;;;;;5022989;28;20247;-68
2023/03/05 04:07:52;;;;;;;6.20;2.00;;;;;;;;;;5021852;28;20694;-68
2023/03/05 04:10:17;;;;;;;6.57;1.80;;;;;;;;;;5022267;28;20226;-68
2023/03/05 04:12:42;;;;;;;5.77;1.90;;;;;;;;;;5022554;28;20204;-68
2023/03/05 04:15:08;;;;;;;5.27;1.80;;;;;;;;;;5009343;28;20237;-68
2023/03/05 04:17:34;;;;;;;5.07;1.80;;;;;;;;;;4995924;28;20212;-69
2023/03/05 04:19:59;;;;;;;7.13;2.10;;;;;;;;;;4996259;28;20250;-69
2023/03/05 04:22:24;;;;;;;7.20;2.10;;;;;;;;;;5011849;28;20222;-68
2023/03/05 04:24:49;;;;;;;4.40;1.73;;;;;;;;;;5022561;28;20278;-68
2023/03/05 04:27:15;;;;;;;6.27;2.20;;;;;;;;;;5006997;28;20311;-68
2023/03/05 04:29:40;;;;;;;5.67;1.90;;;;;;;;;;5002815;28;20216;-68
2023/03/05 04:32:05;;;;;;;6.00;2.10;;;;;;;;;;5002657;28;20299;-68
2023/03/05 04:34:32;;;;;;;6.10;1.90;;;;;;;;;;5006160;28;20281;-69
2023/03/05 04:36:57;;;;;;;7.67;2.30;;;;;;;;;;5012413;28;20218;-69
2023/03/05 04:39:22;;;;;;;6.07;2.27;;;;;;;;;;5011874;28;20216;-68
2023/03/05 04:41:48;;;;;;;5.83;2.07;;;;;;;;;;5011757;28;20666;-68
2023/03/05 04:44:14;;;;;;;5.20;2.00;;;;;;;;;;5011387;28;20240;-68
2023/03/05 04:46:39;;;;;;;8.20;2.20;;;;;;;;;;5012189;28;20679;-69
2023/03/05 04:49:04;;;;;;;5.50;2.10;;;;;;;;;;5019926;28;20214;-68
2023/03/05 04:51:30;;;;;;;5.37;2.20;;;;;;;;;;5031766;28;20235;-68
2023/03/05 04:53:55;;;;;;;5.03;1.95;;;;;;;;;;5031909;28;20674;-68
2023/03/05 04:56:20;;;;;;;6.83;2.20;;;;;;;;;;5018719;28;20224;-68
2023/03/05 04:58:46;;;;;;;7.57;2.37;;;;;;;;;;5004580;28;21254;-68
2023/03/05 05:01:11;;;;;;;10.13;2.13;;;;;;;;;;4995053;28;20212;-68
2023/03/05 05:03:37;;;;;;;6.43;2.20;;;;;;;;;;5013527;28;20254;-68
2023/03/05 05:06:02;;;;;;;7.20;2.50;;;;;;;;;;5014093;28;20234;-68
2023/03/05 05:08:27;;;;;;;6.17;2.20;;;;;;;;;;5021522;28;20302;-68
2023/03/05 05:10:55;;;;;;;6.33;2.40;;;;;;;;;;5021243;28;20219;-69
2023/03/05 05:13:20;;;;;;;6.00;2.03;;;;;;;;;;5021076;28;20222;-68
2023/03/05 05:15:45;;;;;;;7.60;2.37;;;;;;;;;;5007747;28;20235;-68
2023/03/05 05:18:11;;;;;;;5.73;2.10;;;;;;;;;;5000788;28;20477;-68
2023/03/05 05:20:37;;;;;;;7.13;2.33;;;;;;;;;;5002918;28;20216;-68
2023/03/05 05:23:02;;;;;;;8.33;2.40;;;;;;;;;;5016245;28;20746;-68
2023/03/05 05:25:27;;;;;;;3.97;1.97;;;;;;;;;;5013077;28;20587;-68
2023/03/05 05:27:53;;;;;;;4.80;1.93;;;;;;;;;;4994317;28;20811;-68
2023/03/05 05:30:18;;;;;;;6.70;2.20;;;;;;;;;;4998632;28;20216;-68
2023/03/05 05:32:43;;;;;;;6.50;2.30;;;;;;;;;;5001310;28;20212;-69
2023/03/05 05:35:09;;;;;;;5.43;2.00;;;;;;;;;;5001514;28;20632;-68
2023/03/05 05:37:34;;;;;;;5.03;2.03;;;;;;;;;;5001341;28;20212;-68
2023/03/05 05:39:59;;;;;;;6.87;2.10;;;;;;;;;;5001743;28;20227;-69
2023/03/05 05:42:25;;;;;;;5.57;2.00;;;;;;;;;;5001289;28;20212;-68
2023/03/05 05:44:50;;;;;;;5.37;1.90;;;;;;;;;;5017376;28;20665;-68
2023/03/05 05:47:15;;;;;;;7.80;2.20;;;;;;;;;;5013159;28;20449;-68
2023/03/05 05:49:41;;;;;;;3.85;1.83;;;;;;;;;;4995250;28;20208;-68
2023/03/05 05:52:06;;;;;;;6.10;2.00;;;;;;;;;;4995535;28;20220;-68
2023/03/05 05:54:31;;;;;;;4.80;2.03;;;;;;;;;;5001289;28;20216;-69
2023/03/05 05:56:57;;;;;;;5.60;2.10;;;;;;;;;;5020455;28;20269;-69
2023/03/05 05:59:22;;;;;;;6.07;2.10;;;;;;;;;;5020229;28;20220;-69
2023/03/05 06:01:47;;;;;;;5.93;2.00;;;;;;;;;;5020149;28;20750;-69
2023/03/05 06:04:13;;;;;;;5.97;2.10;;;;;;;;;;5020419;28;20222;-69
2023/03/05 06:06:38;;;;;;;5.13;1.90;;;;;;;;;;5019734;28;20223;-69
2023/03/05 06:09:03;;;;;;;6.23;2.10;;;;;;;;;;5013070;28;20288;-68
2023/03/05 06:11:29;;;;;;;5.60;1.90;;;;;;;;;;5013233;28;20226;-69
2023/03/05 06:13:54;;;;;;;5.73;2.20;;;;;;;;;;5012798;28;20227;-69
2023/03/05 06:16:20;;;;;;;4.90;1.83;;;;;;;;;;5001153;28;21833;-68
2023/03/05 06:18:45;;;;;;;4.00;1.90;;;;;;;;;;5020396;28;20211;-69
2023/03/05 06:21:12;;;;;;;4.90;1.93;;;;;;;;;;5009136;28;20204;-68
2023/03/05 06:23:37;;;;;;;4.90;1.93;;;;;;;;;;5019740;28;20222;-69
2023/03/05 06:26:03;;;;;;;4.13;1.67;;;;;;;;;;5015241;28;20224;-68
2023/03/05 06:28:28;;;;;;;3.83;1.47;;;;;;;;;;5019429;28;20238;-68
2023/03/05 06:31:05;;;;;;;4.73;1.73;;;;;;;;;;5019427;28;20682;-68
2023/03/05 06:33:30;;;;;;;5.53;1.80;;;;;;;;;;5018839;28;20265;-68
2023/03/05 06:35:55;;;;;;;5.43;1.87;;;;;;;;;;5014246;28;20299;-65
2023/03/05 06:38:21;;;;;;;6.83;1.90;;;;;;;;;;5005165;28;20626;-66
2023/03/05 06:40:46;;;;;;;4.47;1.80;;;;;;;;;;5026870;28;20679;-66
2023/03/05 06:43:11;;;;;;;4.20;1.87;;;;;;;;;;5025850;28;20211;-66
2023/03/05 06:45:37;;;;;;;4.20;1.80;;;;;;;;;;5027067;28;20687;-66
2023/03/05 06:48:02;;;;;;;4.23;1.93;;;;;;;;;;5020625;28;20216;-66
2023/03/05 06:50:27;;;;;;;4.63;1.58;;;;;;;;;;5007579;28;20212;-66
2023/03/05 06:52:53;;;;;;;3.70;1.77;;;;;;;;;;5023471;28;20697;-66
2023/03/05 06:55:18;;;;;;;6.07;1.80;;;;;;;;;;5018622;28;20239;-66
2023/03/05 06:57:43;;;;;;;4.93;1.97;;;;;;;;;;5019162;28;20230;-66
2023/03/05 07:00:10;;;;;;;4.90;1.60;;;;;;;;;;5021807;28;20212;-65
2023/03/05 07:02:37;;;;;;;4.80;1.80;;;;;;;;;;5026315;28;20294;-66
2023/03/05 07:05:02;;;;;;;3.70;1.90;;;;;;;;;;5026332;28;20226;-65
2023/03/05 07:07:28;;;;;;;3.25;1.63;;;;;;;;;;5026909;28;20203;-66
2023/03/05 07:09:53;;;;;;;5.37;1.80;;;;;;;;;;5026441;28;20219;-66
2023/03/05 07:12:18;;;;;;;3.63;1.70;;;;;;;;;;5026183;28;20212;-66
2023/03/05 07:14:44;;;;;;;5.23;1.67;;;;;;;;;;5019661;28;20229;-66
2023/03/05 07:17:09;;;;;;;5.07;1.80;;;;;;;;;;4999596;28;20562;-66
2023/03/05 07:19:34;;;;;;;7.53;4.03;;;;;;;;;;4999601;28;20212;-66
2023/03/05 07:22:01;;;;;;;9.17;6.20;;;;;;;;;;5002240;28;20665;-65
2023/03/05 07:24:28;;;;;;;4.70;2.50;;;;;;;;;;5011709;28;20296;-66
2023/03/05 07:26:54;;;;;;;3.93;1.90;;;;;;;;;;5013549;28;20710;-66
2023/03/05 07:29:20;;;;;;;5.33;1.90;;;;;;;;;;5014002;28;20301;-66
2023/03/05 07:31:45;;;;;;;4.57;1.75;;;;;;;;;;5015355;28;20231;-66
2023/03/05 07:34:10;;;;;;;4.10;1.50;;;;;;;;;;5015522;28;20450;-66
2023/03/05 07:36:36;;;;;;;3.63;1.50;;;;;;;;;;5016714;28;20627;-65
2023/03/05 07:39:03;;;;;;;5.03;1.90;;;;;;;;;;5015285;28;20287;-66
2023/03/05 07:41:29;;;;;;;3.88;1.60;;;;;;;;;;5014915;28;20624;-67
2023/03/05 07:43:54;;;;;;;5.22;1.75;;;;;;;;;;5005972;28;20212;-67
2023/03/05 07:46:20;;;;;;;4.18;1.60;;;;;;;;;;5010904;28;20323;-66
2023/03/05 07:48:46;;;;;;;5.17;1.83;;;;;;;;;;5006573;28;20255;-66
2023/03/05 07:51:13;;;;;;;3.77;1.60;;;;;;;;;;5008898;28;20872;-66
2023/03/05 07:53:39;;;;;;;3.73;1.40;;;;;;;;;;5009237;28;20292;-66
2023/03/05 07:56:04;;;;;;;4.43;1.53;;;;;;;;;;5005295;28;20283;-66
2023/03/05 07:58:30;;;;;;;4.50;1.47;;;;;;;;;;5012212;28;20217;-66
2023/03/05 08:00:55;;;;;;;4.83;1.60;;;;;;;;;;5005389;28;20258;-66
2023/03/05 08:03:20;;;;;;;3.10;1.30;;;;;;;;;;5007761;28;20563;-67
2023/03/05 08:05:46;;;;;;;2.77;1.33;;;;;;;;;;5009489;28;20594;-67
2023/03/05 08:08:11;;;;;;;3.10;1.20;;;;;;;;;;5004994;28;20689;-66
2023/03/05 08:10:37;;;;;;;4.15;1.60;;;;;;;;;;5011468;28;20196;-66
2023/03/05 08:13:02;;;;;;;3.88;1.27;;;;;;;;;;5005618;28;20200;-65
2023/03/05 08:15:27;;;;;;;2.43;1.10;;;;;;;;;;5014263;28;20223;-67
2023/03/05 08:17:52;;;;;;;3.13;1.35;;;;;;;;;;5005836;28;20229;-66
2023/03/05 08:20:18;;;;;;;3.23;1.10;;;;;;;;;;5006815;28;20255;-66
2023/03/05 08:22:43;;;;;;;3.17;1.30;;;;;;;;;;5015672;28;20774;-68
2023/03/05 08:25:09;;;;;;;4.20;1.20;;;;;;;;;;5012099;28;20315;-68
2023/03/05 08:27:37;;;;;;;3.30;1.10;;;;;;;;;;5007581;28;20224;-67
2023/03/05 08:30:02;;;;;;;2.28;0.90;;;;;;;;;;5020654;28;20356;-67
2023/03/05 08:32:27;;;;;;;2.43;1.10;;;;;;;;;;5031333;28;20262;-68
2023/03/05 08:34:56;;;;;;;2.80;1.30;;;;;;;;;;5031135;28;20261;-68
2023/03/05 08:37:21;;;;;;;3.92;1.10;;;;;;;;;;5015838;28;20247;-67
2023/03/05 08:39:46;;;;;;;3.72;1.23;;;;;;;;;;5012643;28;20251;-68
2023/03/05 08:42:12;;;;;;;4.18;1.65;;;;;;;;;;5016352;28;20261;-66
2023/03/05 08:44:37;;;;;;;4.47;1.20;;;;;;;;;;5014753;28;20216;-67
2023/03/05 08:47:02;;;;;;;2.90;1.20;;;;;;;;;;5011723;28;20224;-68
2023/03/05 08:49:27;;;;;;;10.13;9.13;;;;;;;;;;5006196;28;20224;-67
2023/03/05 08:51:53;;;;;;;4.28;2.10;;;;;;;;;;5009058;28;20232;-68
2023/03/05 08:54:18;;;;;;;5.60;3.17;;;;;;;;;;5004418;28;20208;-66
2023/03/05 08:56:44;;;;;;;9.75;5.45;;;;;;;;;;5011243;28;20231;-66
2023/03/05 08:59:10;;;;;;;34.85;28.50;;;;;;;;;;5011625;28;20262;-67
2023/03/05 09:01:35;;;;;;;15.00;11.75;;;;;;;;;;5008618;28;20295;-67
2023/03/05 09:04:00;;;;;;;4.33;2.77;;;;;;;;;;4984823;28;20237;-66
2023/03/05 09:06:26;;;;;;;2.42;0.82;;;;;;;;;;4994038;28;20483;-67
2023/03/05 09:08:52;;;;;;;3.13;1.25;;;;;;;;;;4980336;28;20567;-66
2023/03/05 09:11:17;;;;;;;2.28;0.90;;;;;;;;;;4993892;28;20650;-67
2023/03/05 09:13:42;;;;;;;4.03;2.35;;;;;;;;;;5005659;28;20586;-66
2023/03/05 09:16:14;;;;;;;3.87;1.80;;;;;;;;;;4993637;28;20923;-66
2023/03/05 09:18:39;;;;;;;2.85;1.00;;;;;;;;;;5005285;28;20563;-66
2023/03/05 09:21:05;;;;;;;4.43;2.28;;;;;;;;;;4985438;28;20421;-64
2023/03/05 09:23:31;;;;;;;3.47;1.20;;;;;;;;;;4986149;28;20240;-67
2023/03/05 09:25:56;;;;;;;2.78;0.90;;;;;;;;;;4981605;28;20267;-66
2023/03/05 09:28:21;;;;;;;2.30;0.88;;;;;;;;;;4997164;28;20212;-66
2023/03/05 09:30:46;;;;;;;3.83;1.08;;;;;;;;;;4997916;28;20262;-66
2023/03/05 09:33:12;;;;;;;2.85;0.88;;;;;;;;;;5002287;28;20267;-64
2023/03/05 09:35:37;;;;;;;2.45;0.88;;;;;;;;;;5005159;28;20259;-63
2023/03/05 09:38:03;;;;;;;1.70;0.80;;;;;;;;;;4986011;28;20209;-65
2023/03/05 09:40:31;;;;;;;3.55;1.70;;;;;;;;;;4995600;28;20220;-68
2023/03/05 09:43:12;;;;;;;3.05;0.90;;;;;;;;;;5003999;28;20215;-65
2023/03/05 09:45:39;;;;;;;1.70;0.80;;;;;;;;;;4997656;28;20217;-66
2023/03/05 09:48:09;;;;;;;1.88;0.80;;;;;;;;;;4983610;28;20210;-65
2023/03/05 09:50:34;;;;;;;3.20;1.40;;;;;;;;;;4991817;28;20868;-65
2023/03/05 09:53:01;;;;;;;2.58;0.80;;;;;;;;;;4979221;28;20219;-65
2023/03/05 09:55:28;;;;;;;3.33;1.25;;;;;;;;;;4983834;28;20213;-65
2023/03/05 09:57:55;;;;;;;3.00;0.85;;;;;;;;;;4986027;28;20260;-65
2023/03/05 10:00:26;;;;;;;2.40;0.80;;;;;;;;;;4988676;28;20578;-65
2023/03/05 10:02:54;;;;;;;1.60;0.70;;;;;;;;;;4987981;28;20229;-66
2023/03/05 10:05:22;;;;;;;2.22;1.25;;;;;;;;;;4998608;28;20236;-65
2023/03/05 10:07:56;;;;;;;3.05;0.90;;;;;;;;;;4999607;28;20738;-66
2023/03/05 10:10:24;;;;;;;2.38;0.80;;;;;;;;;;4984981;28;20223;-65
2023/03/05 10:12:51;;;;;;;2.60;0.70;;;;;;;;;;4977565;28;20213;-65
2023/03/05 10:15:20;;;;;;;2.20;0.88;;;;;;;;;;4992557;28;20486;-64
2023/03/05 10:17:54;;;;;;;2.08;0.80;;;;;;;;;;4998863;28;20236;-65
2023/03/05 10:20:28;;;;;;;1.58;0.60;;;;;;;;;;5002663;28;20204;-65
2023/03/05 10:22:53;;;;;;;2.28;0.68;;;;;;;;;;5004341;28;20251;-65
2023/03/05 10:25:23;;;;;;;3.90;0.70;;;;;;;;;;5004381;28;20717;-65
2023/03/05 10:27:49;;;;;;;1.83;0.85;;;;;;;;;;4999316;28;20211;-65
2023/03/05 10:30:22;;;;;;;1.58;0.60;;;;;;;;;;4985529;28;20704;-65
2023/03/05 10:32:49;;;;;;;3.72;1.63;;;;;;;;;;5003194;28;20282;-66
2023/03/05 10:35:22;;;;;;;1.98;0.73;;;;;;;;;;4995370;28;20734;-64
2023/03/05 10:37:49;;;;;;;2.58;1.10;;;;;;;;;;4995247;28;20598;-65
2023/03/05 10:40:24;;;;;;;3.67;1.33;;;;;;;;;;4990798;28;20702;-67
2023/03/05 10:42:52;;;;;;;3.95;2.13;;;;;;;;;;5002636;28;20234;-69
2023/03/05 10:45:20;;;;;;;3.08;1.08;;;;;;;;;;5002635;28;20703;-65
2023/03/05 10:47:51;;;;;;;3.30;1.08;;;;;;;;;;4999835;28;20245;-65
2023/03/05 10:50:19;;;;;;;3.67;1.55;;;;;;;;;;5003453;28;20219;-65
2023/03/05 10:52:45;;;;;;;2.55;1.15;;;;;;;;;;5003977;28;20283;-65
2023/03/05 10:55:12;;;;;;;3.85;1.67;;;;;;;;;;5001733;28;20615;-65
2023/03/05 10:57:37;;;;;;;2.95;1.25;;;;;;;;;;4996046;28;20606;-65
2023/03/05 11:00:04;;;;;;;3.03;1.30;;;;;;;;;;4996441;28;20228;-65
2023/03/05 11:02:29;;;;;;;7.13;2.85;;;;;;;;;;4986559;28;20217;-65
2023/03/05 11:04:54;;;;;;;8.85;5.15;;;;;;;;;;4984864;28;20216;-65
2023/03/05 11:07:21;;;;;;;3.75;1.40;;;;;;;;;;5003329;28;20858;-65
2023/03/05 11:09:58;;;;;;;5.68;2.30;;;;;;;;;;5002805;28;20670;-65
2023/03/05 11:12:25;;;;;;;3.05;1.10;;;;;;;;;;5003945;28;20680;-65
2023/03/05 11:15:03;;;;;;;5.18;3.00;;;;;;;;;;5004002;28;20649;-65
2023/03/05 11:17:37;;;;;;;7.50;4.20;;;;;;;;;;4986479;28;20221;-66
2023/03/05 11:20:21;;;;;;;4.03;1.80;;;;;;;;;;4981989;28;20205;-67
2023/03/05 11:23:04;;;;;;;7.03;3.90;;;;;;;;;;4980735;28;20296;-67
2023/03/05 11:25:30;;;;;;;4.30;2.55;;;;;;;;;;5001353;28;20267;-68
2023/03/05 11:27:55;;;;;;;7.15;4.30;;;;;;;;;;5003085;28;20312;-67
2023/03/05 11:30:24;;;;;;;12.15;7.90;;;;;;;;;;5006214;28;20729;-65
2023/03/05 11:32:49;;;;;;;3.35;1.88;;;;;;;;;;5007013;28;20232;-66
2023/03/05 11:35:21;;;;;;;3.13;1.50;;;;;;;;;;5005955;28;20239;-67
2023/03/05 11:37:46;;;;;;;8.50;4.25;;;;;;;;;;4990254;28;20477;-68
2023/03/05 11:40:19;;;;;;;2.97;1.30;;;;;;;;;;5000905;28;20220;-66
2023/03/05 11:42:45;;;;;;;4.85;2.65;;;;;;;;;;4999098;28;20220;-69
2023/03/05 11:45:14;;;;;;;1.38;0.50;;;;;;;;;;4994668;28;20271;-68
2023/03/05 11:47:43;;;;;;;8.13;4.78;;;;;;;;;;4998635;28;20217;-69
2023/03/05 11:50:13;;;;;;;2.78;1.45;;;;;;;;;;5005760;28;20753;-68
2023/03/05 11:52:41;;;;;;;4.53;1.90;;;;;;;;;;4989911;28;20419;-69
2023/03/05 11:55:12;;;;;;;7.03;3.35;;;;;;;;;;5001765;28;20212;-70
2023/03/05 11:57:42;;;;;;;4.55;2.40;;;;;;;;;;5002170;28;20209;-67
2023/03/05 12:00:11;;;;;;;3.47;1.90;;;;;;;;;;4988961;28;20197;-68
2023/03/05 12:02:36;;;;;;;1.35;0.60;;;;;;;;;;5002739;28;20244;-67
2023/03/05 12:05:03;;;;;;;1.23;0.60;;;;;;;;;;4980428;28;20630;-68
2023/03/05 12:07:36;;;;;;;2.80;0.90;;;;;;;;;;4999267;28;20634;-69
2023/03/05 12:10:02;;;;;;;1.52;0.60;;;;;;;;;;4997784;28;20220;-68
2023/03/05 12:12:37;;;;;;;2.50;0.65;;;;;;;;;;4985226;28;20526;-69
2023/03/05 12:15:17;;;;;;;2.38;0.70;;;;;;;;;;5004202;28;20703;-68
2023/03/05 12:17:44;;;;;;;4.72;3.20;;;;;;;;;;5006719;28;20227;-73
2023/03/05 12:20:15;;;;;;;3.90;1.23;;;;;;;;;;5004464;28;20581;-67
2023/03/05 12:22:40;;;;;;;1.95;0.73;;;;;;;;;;5005373;28;20222;-68
2023/03/05 12:25:25;;;;;;;2.20;0.80;;;;;;;;;;4986920;28;20217;-69
2023/03/05 12:27:50;;;;;;;1.20;0.60;;;;;;;;;;4979991;28;20213;-67
2023/03/05 12:30:48;;;;;;;3.17;0.70;;;;;;;;;;4979426;28;20220;-69
2023/03/05 12:33:31;;;;;;;1.42;0.60;;;;;;;;;;4998661;28;20226;-66
2023/03/05 12:36:16;;;;;;;1.23;0.50;;;;;;;;;;5006234;28;20574;-67
2023/03/05 12:38:42;;;;;;;1.00;0.40;;;;;;;;;;5005441;28;20212;-67
2023/03/05 12:41:20;;;;;;;0.95;0.40;;;;;;;;;;4991326;28;20217;-68
2023/03/05 12:43:46;;;;;;;3.10;0.70;;;;;;;;;;4992874;28;20209;-68
2023/03/05 12:46:21;;;;;;;1.90;0.50;;;;;;;;;;5001146;28;20268;-67
2023/03/05 12:48:46;;;;;;;1.55;0.60;;;;;;;;;;4989306;28;20220;-68
2023/03/05 12:51:12;;;;;;;1.13;0.47;;;;;;;;;;4979076;28;20220;-67
2023/03/05 12:53:37;;;;;;;1.15;0.60;;;;;;;;;;4994059;28;20619;-68
2023/03/05 12:56:10;;;;;;;1.08;0.47;;;;;;;;;;4981578;28;20217;-67
2023/03/05 12:58:37;;;;;;;2.75;0.90;;;;;;;;;;5004879;28;20710;-68
2023/03/05 13:01:10;;;;;;;2.30;0.88;;;;;;;;;;5006081;28;20212;-67
2023/03/05 13:03:35;;;;;;;1.55;0.82;;;;;;;;;;5005028;28;20231;-67
2023/03/05 13:06:04;;;;;;;2.90;0.80;;;;;;;;;;4988133;28;20225;-67
2023/03/05 13:08:31;;;;;;;1.00;0.40;;;;;;;;;;5004981;28;20578;-67
2023/03/05 13:10:58;;;;;;;1.63;0.57;;;;;;;;;;5000922;28;20292;-68
2023/03/05 13:13:24;;;;;;;2.40;0.50;;;;;;;;;;4986405;28;20287;-66
2023/03/05 13:15:50;;;;;;;1.50;0.33;;;;;;;;;;4980922;28;20240;-66
2023/03/05 13:18:19;;;;;;;2.10;0.30;;;;;;;;;;4996363;28;20890;-66
2023/03/05 13:20:44;;;;;;;1.43;0.63;;;;;;;;;;4998725;28;20212;-66
2023/03/05 13:23:19;;;;;;;1.10;0.50;;;;;;;;;;5002093;28;20222;-65
2023/03/05 13:25:54;;;;;;;1.63;0.77;;;;;;;;;;5002567;28;20686;-64
2023/03/05 13:28:20;;;;;;;0.83;0.40;;;;;;;;;;5004962;28;21754;-67
2023/03/05 13:30:50;;;;;;;1.35;0.50;;;;;;;;;;5004581;28;20208;-68
2023/03/05 13:33:16;;;;;;;2.07;0.60;;;;;;;;;;5005061;28;20205;-67
2023/03/05 13:35:43;;;;;;;1.27;0.50;;;;;;;;;;5005297;28;20283;-69
2023/03/05 13:38:15;;;;;;;2.87;0.60;;;;;;;;;;4999555;28;20224;-67
2023/03/05 13:40:41;;;;;;;2.45;0.63;;;;;;;;;;4992778;28;20744;-68
2023/03/05 13:43:07;;;;;;;1.83;0.60;;;;;;;;;;4978463;28;20228;-67
2023/03/05 13:45:33;;;;;;;2.05;0.60;;;;;;;;;;5000861;28;20250;-67
2023/03/05 13:47:59;;;;;;;2.08;0.60;;;;;;;;;;5000589;28;20577;-68
2023/03/05 13:50:27;;;;;;;1.07;0.50;;;;;;;;;;4985031;28;20264;-67
2023/03/05 13:52:52;;;;;;;1.13;0.50;;;;;;;;;;5004683;28;20581;-68
2023/03/05 13:55:17;;;;;;;1.30;0.50;;;;;;;;;;5004761;28;20220;-66
2023/03/05 13:57:44;;;;;;;1.35;0.50;;;;;;;;;;5004119;28;21012;-68
2023/03/05 14:00:24;;;;;;;1.20;0.60;;;;;;;;;;5000975;28;20267;-64
2023/03/05 14:02:49;;;;;;;0.63;0.45;;;;;;;;;;4990113;28;20221;-66
2023/03/05 14:05:15;;;;;;;1.15;0.60;;;;;;;;;;4992533;28;20213;-66
2023/03/05 14:07:40;;;;;;;1.35;0.70;;;;;;;;;;4998929;28;20682;-66
2023/03/05 14:10:24;;;;;;;1.77;0.60;;;;;;;;;;5003227;28;20234;-67
2023/03/05 14:12:49;;;;;;;2.40;0.80;;;;;;;;;;4992224;28;20270;-67
2023/03/05 14:15:19;;;;;;;1.50;0.50;;;;;;;;;;4985591;28;20232;-67
2023/03/05 14:17:45;;;;;;;1.45;0.65;;;;;;;;;;5004673;28;20214;-67
2023/03/05 14:20:10;;;;;;;2.97;0.80;;;;;;;;;;5003218;28;20213;-66
2023/03/05 14:22:36;;;;;;;1.92;0.82;;;;;;;;;;5003075;28;20942;-67
2023/03/05 14:25:02;;;;;;;1.45;0.70;;;;;;;;;;4996015;28;20224;-66
2023/03/05 14:27:30;;;;;;;2.58;0.80;;;;;;;;;;4980448;28;20213;-67
2023/03/05 14:29:55;;;;;;;2.30;0.73;;;;;;;;;;4998083;28;20208;-67
2023/03/05 14:32:24;;;;;;;1.70;0.70;;;;;;;;;;5004118;28;20299;-66
2023/03/05 14:34:50;;;;;;;1.85;0.70;;;;;;;;;;5002992;28;20212;-66
2023/03/05 14:37:18;;;;;;;2.58;0.90;;;;;;;;;;5004086;28;20274;-65
2023/03/05 14:39:44;;;;;;;1.85;0.80;;;;;;;;;;4999581;28;20232;-67